Bremgarten, Germany

5:04 AM CET on February 11, 2016 (GMT +0100)
Fire Department | | Change Station
CLOSE
Current Station
Personal Weather Station
Location: Bad Krozingen, BADEN-WüRTTEMBERG
Elevation: 741 ft
Nearby Weather Stations

Elev 741 ft 47.92 °N, 7.70 °E | Updated 4 minutes ago

Clear
Clear
37.8 °F
Feels Like 34 °F
N
5.2
Wind Variable Wind from SSE
Gusts 13.3 mph

Today
High -- | Low -- °F
--% Chance of Precip.
Yesterday
High -- | Low -- °F
Precip. -- in
Pressure 29.80 in
Visibility -9999.0 miles
Clouds
Windchill 34 °F
Dew Point 33 °F
Humidity 82%
Rainfall 0.00 in
Snow Depth Not available.
7:43 AM 5:44 PM
Waxing Crescent, 9% visible
METAR LFSB 110400Z 00000KT CAVOK 01/M01 Q1009 NOSIG
Pressure 29.80 in
Visibility -9999.0 miles
Clouds
Windchill 34 °F
Dew Point 33 °F
Humidity 82%
Rainfall 0.00 in
Snow Depth Not available.
7:43 AM 5:44 PM
Waxing Crescent, 9% visible
METAR LFSB 110400Z 00000KT CAVOK 01/M01 Q1009 NOSIG

10-Day Weather Forecast

Almanac

Astronomy

Feb. 11, 2016 Rise Set
Actual Time
Civil Twilight
Nautical Twilight
Astronomical Twilight
Moon
Length of Visible Light
Length of Day
Tomorrow will be .
, % of the Moon is Illuminated

Today's Extremes

Country Highs Country Lows

Community

WunderPhotos

Upload Photos

1,892,007 photos uploaded!

WunderBlog® & News

Nearby

Air Quality

  Air Quality AQ Index Pollutant
Not available.

Snow Depth

Station Depth Elevation

Earthquake Activity

City Distance Mag. Time & Date
Minimum magnitude displayed is 2.5.

Coastal Water Temperatures

Place Temperature

Stations

Nearby Weather Stations

Station Location Temp. Windchill Dew Point Humidity Wind Precip. Elev Updated Type